Date,TemperatureHighF,TemperatureAvgF,TemperatureLowF,DewpointHighF,DewpointAvgF,DewpointLowF,HumidityHigh,HumidityAvg,HumidityLow,PressureMaxIn,PressureMinIn,WindSpeedMaxMPH,WindSpeedAvgMPH,GustSpeedMaxMPH,PrecipitationSumIn
2013-1-1,78,63,50,61,56,50,99,82,52,30.24,30.05,16,1,20,0.00
2013-1-2,82,66,55,67,61,54,99,84,55,30.08,29.98,14,1,14,0.00
2013-1-3,74,64,58,66,62,56,99,92,76,30.19,30.04,18,1,18,0.06
2013-1-4,59,57,54,58,56,54,98,97,95,30.29,30.16,16,2,16,0.17
2013-1-5,76,62,54,64,57,52,97,84,64,30.32,30.20,16,2,16,0.01
2013-1-6,80,68,61,69,63,58,98,87,67,30.23,30.07,16,1,22,0.24
2013-1-7,72,63,56,62,58,52,96,85,62,30.24,30.13,18,2,22,0.00
2013-1-8,81,70,62,70,66,61,99,88,65,30.24,30.14,10,1,10,0.00
2013-1-9,82,72,65,74,69,64,100,91,71,30.32,30.21,16,1,16,0.00
2013-1-10,82,71,63,70,66,63,100,86,57,30.33,30.23,22,3,28,0.01
2013-1-11,81,70,60,70,64,59,100,84,56,30.28,30.17,20,2,20,0.00
2013-1-12,82,69,58,69,63,58,100,83,52,30.22,30.10,18,2,18,0.00
2013-1-13,84,69,56,67,62,56,100,82,50,30.18,30.08,18,1,18,0.00
2013-1-14,83,69,58,67,63,57,99,84,53,30.21,30.12,18,2,18,0.00
2013-1-15,82,69,60,68,64,59,99,85,54,30.17,30.07,28,2,28,0.00
2013-1-16,84,69,58,67,62,58,100,80,44,30.12,30.01,14,1,14,0.00
2013-1-17,79,64,53,69,58,46,99,84,63,30.12,29.96,34,5,36,0.00
2013-1-18,65,54,41,61,48,35,94,78,71,30.30,30.11,26,4,26,0.02
2013-1-19,74,64,55,62,58,52,92,80,62,30.30,30.15,22,2,22,0.00
2013-1-20,74,63,58,64,59,53,97,86,66,30.19,30.07,20,2,20,0.01
2013-1-21,76,64,58,63,58,55,92,80,61,30.11,30.00,10,0,10,0.00
2013-1-22,65,57,45,55,45,38,86,66,42,30.29,30.07,18,2,22,0.00
2013-1-23,71,54,42,45,40,32,91,62,26,30.38,30.28,14,1,14,0.00
2013-1-24,75,58,42,53,46,41,98,70,37,30.34,30.23,18,2,18,0.00
2013-1-25,78,62,50,57,51,46,99,72,39,30.32,30.18,16,1,16,0.00
2013-1-26,78,60,44,58,51,43,99,76,42,30.29,30.17,16,1,18,0.00
2013-1-27,80,64,49,63,57,49,99,81,46,30.33,30.24,16,1,16,0.00
2013-1-28,78,68,59,65,63,58,99,83,61,30.35,30.25,22,3,24,0.00
2013-1-29,84,71,60,69,65,59,99,84,55,30.27,30.12,24,2,24,0.00
2013-1-30,84,73,62,66,64,61,99,76,51,30.14,29.89,22,4,24,0.00
2013-1-31,70,59,48,66,43,28,95,59,28,30.24,29.90,26,4,30,0.06
2013-2-1,72,53,36,38,32,24,88,50,17,30.37,30.24,18,2,20,0.00
2013-2-2,74,56,41,46,40,36,85,60,28,30.33,30.16,16,1,16,0.00
2013-2-3,72,57,41,51,43,35,95,62,38,30.20,30.07,22,3,22,0.00
2013-2-4,73,55,40,48,40,33,98,62,26,30.16,30.05,16,1,16,0.00
2013-2-5,78,59,40,53,47,39,98,68,37,30.12,30.00,18,1,18,0.00
2013-2-6,80,67,56,64,58,53,92,75,50,30.13,30.04,12,1,14,0.00
2013-2-7,83,73,65,64,62,58,88,70,50,30.10,29.88,20,2,22,0.00
2013-2-8,82,71,60,65,59,55,90,70,42,30.09,29.88,26,4,26,0.00
2013-2-9,76,62,54,59,55,52,95,77,48,30.22,30.08,16,2,20,0.00
2013-2-10,79,64,52,61,56,50,98,76,48,30.29,30.18,30,4,30,0.00
2013-2-11,84,70,55,64,60,54,99,74,44,30.23,30.08,20,2,20,0.00
2013-2-12,86,73,59,68,63,58,99,74,44,30.11,29.93,20,2,20,0.00
2013-2-13,88,73,64,70,66,59,96,81,48,29.98,29.81,26,4,28,0.36
2013-2-14,67,62,57,62,59,56,97,89,75,30.06,29.92,18,1,20,0.21
2013-2-15,72,59,53,58,54,52,97,86,56,30.10,29.96,18,2,18,0.03
2013-2-16,70,57,48,53,44,26,96,65,31,30.14,29.90,34,6,36,0.00
2013-2-17,57,45,34,30,21,9,78,42,16,30.37,30.14,28,4,32,0.00
2013-2-18,69,50,31,47,37,26,92,66,39,30.39,30.23,26,2,30,0.00
2013-2-19,80,63,45,57,51,44,97,69,38,30.24,30.06,22,2,22,0.00
2013-2-20,78,65,58,60,56,53,97,76,54,30.15,30.03,14,1,14,0.00
2013-2-21,85,69,56,66,59,52,92,73,43,30.13,30.00,16,1,16,0.00
2013-2-22,88,73,61,70,66,60,99,80,44,30.10,30.00,26,3,26,0.00
2013-2-23,89,77,70,69,67,63,94,75,45,30.03,29.87,30,3,30,0.00
2013-2-24,76,70,64,72,67,63,97,93,84,29.98,29.87,14,1,14,0.22
2013-2-25,87,71,61,72,65,61,99,84,43,29.95,29.77,16,1,16,0.12
2013-2-26,77,71,64,71,67,60,97,89,75,29.87,29.75,24,3,24,0.08
2013-2-27,77,66,57,62,56,49,93,72,46,29.98,29.87,22,4,26,0.00
2013-2-28,76,62,48,53,49,42,98,65,33,30.01,29.88,26,5,26,0.00
2013-3-1,67,56,49,48,40,30,82,57,31,30.02,29.92,26,5,26,0.00
2013-3-2,61,52,43,38,34,27,71,51,29,30.04,29.95,34,7,38,0.00
2013-3-3,54,45,37,33,31,29,79,59,43,30.18,30.01,30,6,30,0.00
2013-3-4,68,50,32,38,31,24,93,55,21,30.26,30.13,20,2,20,0.00
2013-3-5,79,60,39,57,42,34,98,59,28,30.20,30.02,26,3,26,0.00
2013-3-6,70,60,50,60,40,27,92,53,23,30.15,29.93,30,8,32,0.00
2013-3-7,71,54,40,47,39,31,91,59,35,30.24,30.13,16,3,16,0.00
2013-3-8,78,57,41,50,43,34,99,67,21,30.24,30.13,16,1,18,0.00
2013-3-9,78,60,46,53,49,44,96,70,37,30.25,30.16,20,1,20,0.00
2013-3-10,80,65,51,58,54,50,98,72,41,30.20,30.10,30,3,30,0.00
2013-3-11,80,67,52,61,56,51,98,73,48,30.14,29.93,22,3,22,0.00
2013-3-12,71,66,58,67,62,56,97,88,76,30.03,29.89,20,3,22,0.20
2013-3-13,78,62,51,56,42,30,94,56,19,30.18,30.03,22,4,26,0.00
2013-3-14,70,56,44,44,36,26,86,50,20,30.28,30.16,24,4,24,0.00
2013-3-15,75,56,38,46,38,31,98,59,23,30.31,30.15,18,1,18,0.00
2013-3-16,82,62,43,50,43,39,97,56,24,30.21,30.05,18,2,18,0.00
2013-3-17,80,64,45,59,51,41,96,65,40,30.16,30.01,20,1,20,0.00
2013-3-18,80,71,63,65,62,58,86,73,57,30.08,29.92,18,2,18,0.00
2013-3-19,91,74,62,65,61,57,97,70,32,30.04,29.89,16,2,16,0.00
2013-3-20,75,67,59,68,62,56,96,85,71,29.99,29.80,24,2,24,0.36
2013-3-21,72,60,50,56,42,29,94,58,22,29.99,29.87,22,4,22,0.00
2013-3-22,80,61,44,61,50,43,96,73,34,30.04,29.91,20,1,20,0.12
2013-3-23,88,73,62,73,66,61,99,82,53,30.01,29.77,20,2,22,0.07
2013-3-24,82,72,64,73,68,62,97,89,69,29.87,29.63,52,4,52,0.94
2013-3-25,73,66,55,66,47,28,94,56,20,30.04,29.72,30,6,30,0.00
2013-3-26,62,54,47,40,29,20,62,40,20,30.25,30.03,32,8,34,0.00
2013-3-27,66,52,40,41,32,27,82,51,25,30.32,30.22,20,3,20,0.00
2013-3-28,74,56,38,44,38,29,97,58,19,30.32,30.19,16,2,16,0.00
2013-3-29,77,60,43,49,40,31,98,57,19,30.35,30.20,20,1,20,0.00
2013-3-30,81,64,45,54,48,43,96,62,29,30.28,30.12,20,2,20,0.00
2013-3-31,83,71,61,58,54,51,78,57,35,30.19,30.00,12,2,22,0.00
2013-4-1,87,73,61,66,61,57,90,68,42,30.05,29.92,28,3,28,0.00
2013-4-2,88,72,61,63,59,51,97,67,33,30.10,30.00,18,2,18,0.00
2013-4-3,84,71,60,68,63,58,96,77,51,30.10,29.97,26,4,26,0.23
2013-4-4,75,70,66,69,67,63,97,90,78,30.03,29.85,30,2,30,0.19
2013-4-5,79,67,57,68,62,55,96,85,57,30.00,29.81,24,3,24,0.18
2013-4-6,79,65,54,61,57,51,95,75,49,30.16,30.00,20,3,20,0.01
2013-4-7,81,68,57,63,59,56,99,76,48,30.18,30.07,22,2,22,0.00
2013-4-8,85,70,57,65,60,56,99,74,44,30.16,30.07,26,3,26,0.00
2013-4-9,86,72,61,68,62,55,99,74,44,30.19,30.09,28,4,28,0.00
2013-4-10,88,73,59,70,64,58,99,78,43,30.15,30.00,30,4,30,0.00
2013-4-11,90,78,69,73,70,68,97,79,51,30.02,29.83,26,4,28,0.00
2013-4-12,86,78,73,74,71,68,93,80,61,29.92,29.81,22,3,22,0.00
2013-4-13,86,76,68,70,67,60,95,75,54,30.00,29.88,14,2,14,0.00
2013-4-14,87,74,66,74,68,62,97,80,59,30.00,29.82,24,3,28,3.15
2013-4-15,92,75,64,70,65,62,97,74,43,30.09,29.91,18,1,18,0.00
2013-4-16,88,76,67,73,68,64,98,79,58,30.17,30.06,18,1,18,0.00
2013-4-17,85,73,65,70,67,64,99,82,56,30.17,30.06,16,1,16,0.00
2013-4-18,88,76,64,71,67,63,99,77,48,30.09,29.97,24,3,24,0.00
2013-4-19,91,79,71,74,71,68,96,79,48,30.03,29.90,22,3,22,0.10
2013-4-20,75,68,60,71,63,56,95,85,69,30.17,29.96,18,2,18,0.01
2013-4-21,78,68,61,73,66,57,98,92,77,30.16,30.02,22,2,22,1.05
2013-4-22,81,69,65,71,67,63,98,92,66,30.09,30.00,20,2,20,0.21
2013-4-23,84,71,62,68,63,58,99,78,46,30.14,30.02,16,2,22,0.00
2013-4-24,88,71,56,66,61,56,99,75,42,30.16,30.07,20,2,20,0.00
2013-4-25,90,74,60,67,62,58,99,71,37,30.22,30.11,18,1,20,0.00
2013-4-26,90,75,63,69,65,62,98,74,44,30.25,30.16,18,1,18,0.00
2013-4-27,85,74,64,72,66,62,99,78,49,30.24,30.12,26,2,26,0.01
2013-4-28,84,73,63,68,65,61,99,78,50,30.15,30.01,32,4,32,0.00
2013-4-29,87,75,64,72,65,62,97,75,44,30.04,29.90,18,2,20,1.49
2013-4-30,90,74,65,72,68,63,99,84,45,30.03,29.92,24,1,24,0.39
2013-5-1,77,71,67,73,69,66,99,95,81,30.03,29.95,14,0,14,0.22
2013-5-2,74,70,66,71,69,65,99,97,88,29.98,29.83,20,1,20,1.79
2013-5-3,82,72,66,72,68,66,100,90,70,29.85,29.67,20,2,22,0.04
2013-5-4,86,74,68,72,68,66,98,83,56,29.80,29.67,16,2,16,0.03
2013-5-5,80,71,62,67,54,44,93,60,31,29.94,29.75,30,5,30,0.00
2013-5-6,80,70,62,61,56,50,87,64,40,30.01,29.90,24,4,28,0.00
2013-5-7,81,68,54,61,56,52,97,68,43,30.06,29.96,20,3,20,0.00
2013-5-8,85,72,58,64,59,57,99,68,41,30.14,30.03,18,2,18,0.00
2013-5-9,88,74,58,67,61,55,99,69,34,30.16,30.08,16,1,16,0.00
2013-5-10,92,77,63,72,67,62,99,75,41,30.15,30.00,22,2,22,0.00
2013-5-11,92,78,68,73,69,65,96,75,49,30.06,29.96,26,2,26,0.00
2013-5-12,92,79,69,73,67,64,97,70,44,30.04,29.94,24,3,26,0.00
2013-5-13,87,75,63,67,61,50,89,64,33,30.14,30.00,22,2,22,0.00
2013-5-14,87,71,55,58,55,47,95,62,27,30.22,30.13,18,1,18,0.00
2013-5-15,88,72,57,64,58,54,98,65,36,30.22,30.11,20,2,24,0.00
2013-5-16,89,74,60,65,62,58,97,68,36,30.15,30.03,22,2,24,0.00
2013-5-17,91,76,62,70,65,61,97,71,40,30.12,30.04,30,3,38,0.00
2013-5-18,96,79,66,73,68,62,98,74,35,30.13,30.01,24,2,24,0.00
2013-5-19,92,77,71,74,71,67,96,81,51,30.10,30.01,26,3,26,0.02
2013-5-20,90,76,70,73,70,67,97,83,48,30.10,29.99,26,1,26,0.13
2013-5-21,80,73,68,73,70,68,98,92,73,30.05,29.95,16,1,18,0.17
2013-5-22,88,75,67,74,70,66,99,87,54,29.99,29.92,22,1,22,0.10
2013-5-23,93,78,68,75,70,67,99,80,47,30.00,29.91,16,1,16,0.01
2013-5-24,96,81,69,75,68,60,98,69,33,30.10,29.97,16,2,18,0.00
2013-5-25,88,77,66,69,65,59,98,69,43,30.20,30.08,30,2,30,0.00
2013-5-26,88,75,67,62,60,57,83,61,36,30.23,30.15,18,1,18,0.00
2013-5-27,89,75,62,67,63,60,98,69,39,30.20,30.11,26,3,26,0.00
2013-5-28,89,77,65,72,69,64,98,77,53,30.16,30.08,32,4,32,0.00
2013-5-29,88,78,71,75,72,69,97,83,57,30.15,30.07,32,4,32,0.01
2013-5-30,88,79,72,76,72,69,97,81,55,30.13,30.06,32,6,32,0.07
2013-5-31,88,82,74,76,72,69,90,72,57,30.12,30.04,30,7,30,0.01
2013-6-1,88,79,71,78,73,70,97,83,65,30.08,29.98,28,4,28,0.05
2013-6-2,97,80,73,77,74,71,99,84,45,30.02,29.88,22,2,22,0.39
2013-6-3,92,80,74,77,74,72,98,86,55,30.01,29.88,14,1,16,0.52
2013-6-4,88,77,73,75,73,70,98,87,57,30.05,29.94,16,1,20,0.07
2013-6-5,88,75,72,77,73,70,99,93,65,30.03,29.92,16,1,18,1.98
2013-6-6,79,75,72,77,73,70,99,96,81,29.93,29.67,24,4,26,1.82
2013-6-7,92,80,73,77,73,71,97,81,59,29.95,29.76,20,2,20,0.00
2013-6-8,92,78,70,78,73,69,98,87,60,30.10,29.95,36,1,36,1.38
2013-6-9,90,79,70,78,73,70,99,83,62,30.12,30.03,24,3,28,0.00
2013-6-10,94,80,73,78,74,71,98,84,52,30.11,30.01,22,2,22,0.07
2013-6-11,92,78,72,78,74,69,99,89,57,30.09,30.01,14,1,20,0.08
2013-6-12,97,82,70,77,73,67,99,77,41,30.09,29.99,26,1,26,0.00
2013-6-13,96,84,73,78,74,71,95,74,47,30.04,29.89,14,1,18,0.00
2013-6-14,94,84,76,75,72,67,92,71,43,29.94,29.83,16,3,16,0.00
2013-6-15,91,82,77,79,75,72,93,79,62,30.08,29.91,22,3,22,0.00
2013-6-16,89,82,77,80,76,72,91,82,65,30.10,30.03,24,3,28,0.01
2013-6-17,90,80,74,81,76,73,98,90,64,30.09,29.97,16,1,20,1.24
2013-6-18,96,81,72,79,74,71,99,81,50,30.08,29.95,16,1,16,0.10
2013-6-19,95,83,73,78,74,69,97,76,46,30.05,29.95,20,2,20,0.00
2013-6-20,95,80,73,80,74,70,97,82,49,30.11,30.01,24,1,24,0.21
2013-6-21,90,78,71,78,73,70,99,87,59,30.13,30.05,18,1,18,0.05
2013-6-22,92,80,71,78,73,68,99,80,47,30.13,30.05,14,1,16,0.00
2013-6-23,90,79,71,77,74,70,99,84,57,30.16,30.08,20,2,20,0.00
2013-6-24,92,82,72,77,74,72,99,79,57,30.20,30.09,22,2,24,0.00
2013-6-25,92,82,72,78,73,69,99,77,53,30.17,30.04,20,2,20,0.00
2013-6-26,94,81,74,79,74,70,97,81,53,30.09,30.01,32,2,32,0.02
2013-6-27,95,81,70,78,73,69,98,78,48,30.05,29.93,12,1,12,0.03
2013-6-28,94,80,73,78,74,70,97,85,53,29.98,29.85,30,1,30,0.28
2013-6-29,91,81,75,78,74,71,96,82,57,29.89,29.80,24,2,24,0.00
2013-6-30,92,78,74,78,74,71,97,90,61,29.90,29.82,44,1,44,0.65
2013-7-1,86,76,73,77,73,71,98,90,67,30.04,29.87,20,2,22,0.40
2013-7-2,85,76,73,79,74,72,98,94,80,30.11,29.99,18,1,18,0.38
2013-7-3,89,77,72,79,74,71,99,92,68,30.15,30.06,28,2,32,0.42
2013-7-4,91,78,71,78,74,69,99,87,60,30.17,30.08,24,3,34,0.83
2013-7-5,90,80,73,78,74,72,99,83,56,30.16,30.07,30,5,30,0.01
2013-7-6,92,82,73,77,74,72,98,79,57,30.14,30.05,26,4,28,0.00
2013-7-7,91,82,74,78,74,71,98,78,53,30.15,30.05,26,3,26,0.00
2013-7-8,93,82,74,78,75,73,98,79,57,30.17,30.08,22,2,22,0.00
2013-7-9,93,82,72,77,73,70,99,76,50,30.18,30.07,16,1,16,0.00
2013-7-10,92,81,72,76,74,70,99,78,53,30.10,29.98,28,2,28,0.00
2013-7-11,95,82,73,76,73,71,97,77,48,30.05,29.92,20,2,22,0.00
2013-7-12,91,80,73,77,74,72,97,85,59,29.96,29.90,10,1,16,0.14
2013-7-13,92,79,72,77,73,70,98,84,56,30.02,29.91,34,2,34,0.00
2013-7-14,89,78,72,78,73,71,97,87,64,30.11,29.99,28,3,28,0.00
2013-7-15,90,79,70,77,73,69,99,83,61,30.13,30.03,22,2,22,0.00
2013-7-16,90,77,73,79,74,72,98,90,60,30.17,30.11,32,2,32,1.46
2013-7-17,90,78,73,79,75,72,99,89,63,30.17,30.09,30,1,36,0.27
2013-7-18,87,78,72,77,74,71,99,88,67,30.13,30.06,18,2,22,0.07
2013-7-19,91,78,72,78,73,70,98,87,63,30.15,30.04,16,1,16,1.75
2013-7-20,92,78,72,80,74,71,99,91,62,30.11,30.01,30,1,30,0.34
2013-7-21,95,80,72,80,74,70,98,85,53,30.13,30.01,24,1,24,0.00
2013-7-22,94,80,74,78,75,72,96,86,54,30.13,30.07,18,1,18,0.12
2013-7-23,86,78,74,79,74,73,98,88,70,30.10,29.95,10,2,26,0.01
2013-7-24,88,81,76,79,76,71,97,83,63,30.00,29.88,22,2,28,0.01
2013-7-25,87,80,75,79,76,73,95,87,69,29.98,29.87,22,2,22,0.06
2013-7-26,94,83,75,80,76,73,98,82,53,30.01,29.94,14,1,14,0.00
2013-7-27,94,81,74,79,75,73,98,85,55,30.00,29.89,14,1,14,0.38
2013-7-28,94,78,72,79,74,69,99,88,50,30.07,29.94,32,1,32,1.54
2013-7-29,92,79,71,79,75,71,99,88,59,30.16,30.03,18,0,18,0.05
2013-7-30,94,83,74,79,76,72,99,81,54,30.18,30.08,30,2,30,0.00
2013-7-31,94,81,75,80,75,71,98,83,55,30.14,30.01,16,1,24,0.02
2013-8-1,94,79,73,79,74,71,98,86,55,30.08,29.96,36,1,36,0.15
2013-8-2,94,82,73,79,75,71,99,81,49,30.04,29.95,18,1,18,0.01
2013-8-3,95,80,75,80,75,73,97,86,53,30.10,30.00,24,1,26,0.68
2013-8-4,92,81,75,81,76,74,99,87,61,30.09,29.98,18,1,18,0.01
2013-8-5,95,81,76,81,77,73,97,88,56,30.02,29.91,18,1,22,0.33
2013-8-6,94,82,74,81,76,73,98,85,56,29.98,29.90,18,1,18,0.06
2013-8-7,92,83,76,80,77,75,98,83,63,29.99,29.92,28,2,28,0.00
2013-8-8,93,83,75,80,76,73,98,80,57,30.06,29.96,24,3,24,0.00
2013-8-9,93,83,75,78,75,71,98,79,52,30.08,29.99,28,3,28,0.00
2013-8-10,95,83,73,79,74,71,98,77,52,30.13,30.04,20,3,20,0.00
2013-8-11,96,84,74,79,75,72,98,78,48,30.16,30.07,14,2,20,0.00
2013-8-12,96,84,74,78,74,69,98,75,48,30.14,30.00,18,1,18,0.00
2013-8-13,96,85,74,78,74,68,97,73,43,30.06,29.92,15,1,15,0.00
2013-8-14,94,81,76,82,76,72,96,84,54,30.02,29.90,24,1,24,0.11
2013-8-15,96,83,74,79,75,68,98,79,44,30.05,29.92,20,2,20,0.01
2013-8-16,93,81,73,78,76,72,98,84,54,30.09,29.96,24,1,24,2.47
2013-8-17,94,82,75,81,77,74,99,87,58,30.10,29.99,24,2,26,0.03
2013-8-18,92,82,76,79,76,74,98,84,61,30.11,30.01,29,3,29,0.01
2013-8-19,91,82,76,80,76,72,98,83,61,30.10,29.98,22,2,22,0.00
2013-8-20,95,83,75,79,75,71,98,79,50,30.10,30.00,24,3,24,0.00
2013-8-21,92,81,75,81,76,72,97,87,64,30.12,30.05,33,2,46,0.54
2013-8-22,88,79,76,80,77,74,98,93,75,30.10,30.00,20,0,20,0.22
2013-8-23,92,80,75,80,76,73,99,91,63,30.04,29.96,22,1,26,0.11
2013-8-24,93,79,74,81,75,73,99,90,60,30.12,30.01,18,0,20,0.30
2013-8-25,86,78,74,79,75,73,99,92,73,30.17,30.09,22,0,22,0.16
2013-8-26,91,80,73,80,75,72,99,86,63,30.15,30.02,20,1,20,0.01
2013-8-27,90,80,73,76,72,68,98,77,53,30.08,30.00,31,2,31,0.00
2013-8-28,91,80,69,76,70,66,98,75,48,30.07,29.98,18,1,18,0.00
2013-8-29,92,81,72,75,72,69,98,76,49,30.04,29.93,20,1,20,0.00
2013-8-30,96,82,74,78,74,72,97,80,49,29.99,29.88,20,1,20,0.05
2013-8-31,95,82,73,78,74,70,98,80,48,29.98,29.87,20,2,20,0.41
2013-9-1,94,79,72,77,74,71,98,84,51,30.01,29.89,31,1,31,0.25
2013-9-2,95,80,72,78,74,70,99,84,50,30.02,29.92,31,1,31,0.16
2013-9-3,93,82,72,78,74,68,99,79,49,30.03,29.92,15,1,15,0.00
2013-9-4,95,81,74,78,74,71,97,82,52,30.10,29.98,26,1,26,0.09
2013-9-5,94,81,73,80,76,71,98,85,56,30.11,30.01,20,1,22,0.01
2013-9-6,94,78,72,79,75,69,99,90,56,30.06,29.98,33,1,33,1.00
2013-9-7,91,77,72,78,74,71,98,91,58,30.03,29.93,22,1,22,0.23
2013-9-8,73,72,72,72,72,71,98,98,97,29.96,29.92,0,0,0,0.00
2013-9-9,90,81,76,74,73,71,92,77,56,30.05,29.98,15,1,15,0.00
2013-9-10,90,81,73,75,73,66,97,78,47,30.11,30.01,20,1,22,0.00
2013-9-11,76,75,74,74,73,72,96,94,89,30.09,30.03,2,0,2,0.00
2013-9-16,92,82,72,78,75,71,99,80,55,30.09,29.99,29,2,31,0.11
2013-9-17,90,80,73,78,74,71,99,84,59,30.07,29.97,29,1,29,0.01
2013-9-18,87,78,74,78,74,70,97,87,66,30.05,29.98,24,1,24,0.17
2013-9-19,91,79,72,77,73,70,98,84,57,30.06,29.99,22,1,24,0.02
2013-9-20,89,78,69,74,70,68,98,79,52,30.04,29.92,20,1,20,0.00
2013-9-21,91,79,69,74,71,67,99,78,47,29.96,29.77,18,1,18,0.00
2013-9-22,92,79,74,78,74,70,98,86,56,29.86,29.75,22,1,22,0.31
2013-9-23,86,76,73,79,74,72,99,95,74,29.97,29.85,15,1,15,0.92
2013-9-24,86,77,74,78,75,72,98,94,75,29.97,29.84,18,1,18,0.64
2013-9-25,82,77,73,75,73,71,98,88,74,29.86,29.78,26,2,26,0.01
2013-9-26,92,81,73,79,73,64,98,80,41,29.87,29.77,26,3,26,0.00
2013-9-27,83,75,70,75,71,69,96,89,73,29.97,29.85,18,1,18,0.01
2013-9-28,84,76,70,76,71,69,98,85,70,30.02,29.92,18,1,18,0.01
2013-9-29,91,78,70,73,70,66,95,78,46,30.00,29.91,9,1,15,0.00
2013-9-30,90,77,68,74,71,67,99,82,52,30.03,29.92,11,1,15,0.00
2013-10-1,88,78,70,75,72,69,98,82,61,30.08,29.99,22,1,22,0.00
2013-10-2,88,73,68,73,69,67,97,87,61,30.08,30.00,11,0,11,0.00
2013-10-3,91,78,68,75,70,67,98,80,52,30.08,29.99,22,2,22,0.00
2013-10-4,93,78,69,76,71,68,99,81,48,30.09,30.00,15,1,15,0.00
2013-10-5,90,78,69,76,71,68,99,83,53,30.07,29.97,20,1,20,0.00
2013-10-6,94,78,70,78,73,69,99,86,51,29.99,29.86,37,1,37,1.05
2013-10-7,84,76,72,78,73,71,99,92,76,29.89,29.75,26,1,26,0.16
2013-10-8,89,78,74,77,74,71,98,88,63,29.95,29.78,24,3,24,0.04
2013-10-9,82,74,67,72,69,65,93,86,70,30.05,29.93,20,3,24,0.01
2013-10-10,88,74,65,71,67,64,97,80,49,30.07,29.97,13,1,13,0.00
2013-10-11,88,74,62,70,65,61,99,77,47,30.06,29.94,15,1,18,0.00
2013-10-12,88,75,65,72,65,60,98,75,39,30.05,29.97,15,1,15,0.00
2013-10-13,88,75,63,68,64,59,98,72,41,30.09,29.99,18,1,18,0.00
2013-10-14,88,75,66,71,67,64,96,79,49,30.05,29.94,18,1,18,0.00
2013-10-15,84,73,68,73,70,66,96,88,67,30.01,29.90,15,1,15,0.00
2013-10-16,89,77,70,73,70,65,98,82,47,29.99,29.90,13,1,13,0.00
2013-10-17,89,77,68,74,70,68,99,83,54,29.99,29.89,11,1,11,0.00
2013-10-18,92,78,68,75,71,67,99,81,50,30.00,29.90,20,2,22,0.00
2013-10-19,86,76,70,75,72,69,98,87,59,29.97,29.87,13,1,15,0.00
2013-10-20,89,78,74,76,73,70,96,84,65,29.98,29.86,11,1,13,0.00
2013-10-21,92,79,71,77,73,70,98,85,55,30.01,29.90,15,1,15,0.28
2013-10-22,91,80,72,77,73,70,98,82,57,29.96,29.81,20,2,20,0.01
2013-10-23,85,75,66,71,64,53,94,70,40,30.02,29.81,20,2,20,0.01
2013-10-24,73,65,60,60,56,48,91,72,60,30.17,30.02,13,1,13,0.00
2013-10-25,83,68,56,59,56,51,96,70,35,30.25,30.16,15,1,15,0.00
2013-10-26,82,66,55,60,55,51,96,73,35,30.22,30.10,11,1,11,0.00
2013-10-27,82,65,54,61,56,53,98,74,38,30.15,30.07,13,1,15,0.00
2013-10-28,86,67,54,65,59,52,98,78,45,30.20,30.11,11,1,11,0.00
2013-10-29,85,71,61,70,64,60,98,81,50,30.23,30.15,22,1,22,0.01
2013-10-30,85,72,64,71,66,63,97,83,57,30.24,30.12,20,1,20,0.00
2013-10-31,87,74,64,71,67,63,99,80,49,30.15,30.00,18,3,24,0.00
2013-11-1,90,78,68,73,69,64,98,76,48,30.02,29.86,26,2,26,0.00
2013-11-2,77,69,62,72,66,60,96,91,82,29.98,29.82,26,1,26,0.41
2013-11-3,78,65,56,60,55,46,98,74,35,30.12,29.96,20,1,20,0.01
2013-11-4,80,68,62,65,61,56,89,77,50,30.19,30.10,26,1,26,0.00
2013-11-5,83,72,65,70,67,62,95,83,60,30.17,30.10,31,3,31,0.06
2013-11-6,81,72,66,71,68,64,97,87,66,30.14,30.05,13,1,13,0.01
2013-11-7,82,72,66,71,68,65,98,87,63,30.06,29.96,15,1,18,0.00
2013-11-8,80,68,63,67,63,57,97,84,64,30.14,30.00,18,2,22,0.01
2013-11-9,81,69,61,66,62,59,97,79,55,30.20,30.11,22,1,22,0.00
2013-11-10,84,70,61,68,64,60,98,82,51,30.18,30.10,13,1,13,0.00
2013-11-11,84,71,63,70,65,62,98,83,53,30.18,30.08,18,1,18,0.00
2013-11-12,80,70,62,69,64,59,99,85,62,30.13,30.01,15,0,15,0.01
2013-11-13,67,61,53,59,53,50,88,75,61,30.33,30.09,35,5,35,0.00
2013-11-14,76,62,50,60,54,49,96,78,45,30.32,30.19,26,2,26,0.00
2013-11-15,78,67,57,67,63,56,96,87,67,30.22,30.09,15,1,15,0.05
2013-11-16,76,70,67,74,69,65,98,95,91,30.15,30.04,13,0,13,0.12
2013-11-17,87,75,67,73,70,66,98,83,57,30.10,29.99,24,2,24,0.00
2013-11-18,84,75,69,71,69,67,98,83,63,30.04,29.92,20,1,24,0.00
2013-11-19,80,71,65,69,64,59,95,80,53,29.99,29.89,11,1,11,0.00
2013-11-20,81,72,65,72,68,62,96,87,70,30.12,29.97,20,1,22,0.06
2013-11-21,78,72,69,72,70,68,97,93,81,30.20,30.11,24,1,24,0.12
2013-11-22,79,72,67,72,68,65,98,89,68,30.22,30.12,26,1,26,0.05
2013-11-23,86,72,63,70,66,62,99,83,51,30.12,30.00,15,0,18,0.00
2013-11-24,70,65,61,66,59,53,97,82,70,30.25,30.03,26,4,29,0.00
2013-11-25,74,66,60,62,58,54,87,74,57,30.27,30.09,33,4,35,0.00
2013-11-26,82,71,66,73,68,62,96,90,72,30.10,29.85,26,6,26,0.08
2013-11-30,76,68,62,65,62,60,94,82,64,30.24,30.20,15,3,15,0.00
2013-12-1,74,66,62,66,63,60,97,91,75,30.20,29.99,18,2,18,0.00
2013-12-2,74,64,59,63,60,55,98,85,56,29.99,29.83,20,1,20,0.00
2013-12-3,78,65,54,62,58,53,98,81,54,30.01,29.90,20,1,20,0.00
2013-12-4,83,69,59,68,63,58,99,84,53,30.10,29.98,13,0,13,0.00
2013-12-5,83,71,60,69,65,59,99,83,57,30.19,30.09,22,2,22,0.00
2013-12-6,86,73,64,72,68,63,99,84,57,30.19,30.09,24,2,24,0.00
2013-12-7,85,72,63,70,66,62,98,81,49,30.25,30.15,18,1,18,0.00
2013-12-8,83,72,61,71,66,60,99,84,55,30.24,30.11,24,2,26,0.01
2013-12-9,85,72,62,72,66,61,99,83,57,30.20,30.09,20,1,20,0.00
2013-12-10,85,73,60,71,65,59,98,79,51,30.20,30.06,20,2,20,0.00
2013-12-11,83,69,59,69,62,55,90,80,58,30.26,30.15,15,2,15,0.00
2013-12-12,72,62,52,62,50,35,95,70,32,30.33,30.20,20,4,26,0.00
2013-12-13,74,60,47,57,52,45,95,77,51,30.29,30.14,26,2,26,0.00
2013-12-14,81,71,58,71,66,56,96,84,66,30.14,29.94,26,2,26,0.00
2013-12-15,72,68,59,70,63,55,96,85,69,30.13,29.88,22,3,22,0.05
2013-12-16,68,55,44,55,48,42,94,77,49,30.25,30.12,18,2,18,0.00
2013-12-17,74,56,44,56,49,42,95,80,51,30.27,30.16,13,1,13,0.00
2013-12-18,73,54,41,49,45,40,97,74,39,30.30,30.21,20,1,20,0.00
2013-12-19,77,58,42,59,51,41,98,81,47,30.30,30.19,20,1,20,0.01
2013-12-20,84,72,53,64,62,52,98,71,50,30.23,30.12,24,3,24,0.00
2013-12-21,85,72,61,72,67,60,98,86,60,30.17,30.05,29,4,29,0.00
2013-12-22,86,74,66,73,68,65,98,84,58,30.15,30.08,22,2,24,0.01
2013-12-23,86,74,65,73,69,64,98,84,58,30.18,30.07,22,1,22,0.00
2013-12-24,72,64,52,70,53,29,96,73,29,30.27,30.09,29,4,29,0.00
2013-12-25,76,58,46,58,50,40,93,75,48,30.26,30.17,24,2,24,0.00
2013-12-26,78,63,56,65,59,55,98,86,59,30.23,30.11,18,2,18,0.00
2013-12-27,72,65,59,66,62,57,95,90,81,30.27,30.18,18,3,20,0.00
2013-12-28,75,70,65,71,68,63,98,93,82,30.23,30.02,24,4,26,0.10
2013-12-29,78,72,66,73,70,64,97,93,81,30.03,29.88,22,2,22,0.45
2013-12-30,72,62,56,65,58,54,97,88,61,30.21,29.99,15,1,15,0.00
2013-12-31,69,61,57,55,53,49,91,76,52,30.32,30.18,15,1,15,0.00
2014-1-1,65,61,58,64,60,55,98,94,86,30.27,30.07,13,1,20,0.04
2014-1-2,81,68,60,73,66,55,99,94,72,30.08,29.82,40,3,40,0.46